Time;durP1;ratioP1;P1;durP2;ratioP2;P2;SDS_P1;SDS_P2;PMS_P1;PMS_P2;Temp;Humidity;BMP_temperature;BMP_pressure;BME280_temperature;BME280_humidity;BME280_pressure;Samples;Min_cycle;Max_cycle;Signal;HPM_P1;HPM_P2
2023/03/09 00:00:21;;;;;;;22.07;7.83;;;;;;;-0.38;100.00;98751.63;6002600;28;20481;-71
2023/03/09 00:03:16;;;;;;;19.15;7.10;;;;;;;-0.32;100.00;98772.75;5999941;28;20039;-74
2023/03/09 00:06:12;;;;;;;19.30;7.10;;;;;;;-0.41;100.00;98752.69;6001465;28;20035;-74
2023/03/09 00:09:08;;;;;;;23.17;7.22;;;;;;;-0.32;100.00;98766.72;6001980;28;20443;-72
2023/03/09 00:12:03;;;;;;;19.43;7.03;;;;;;;-0.34;100.00;98772.06;6001172;28;20129;-73
2023/03/09 00:14:58;;;;;;;19.53;7.53;;;;;;;-0.31;100.00;98769.22;6002193;28;20267;-74
2023/03/09 00:17:54;;;;;;;16.70;6.07;;;;;;;-0.44;100.00;98763.34;6000686;28;20039;-72
2023/03/09 00:20:49;;;;;;;24.73;8.83;;;;;;;-0.38;100.00;98775.84;6002236;28;20382;-73
2023/03/09 00:23:45;;;;;;;19.90;6.27;;;;;;;-0.45;100.00;98753.88;6001184;28;20031;-73
2023/03/09 00:26:43;;;;;;;17.15;6.32;;;;;;;-0.39;100.00;98761.19;6001046;28;20043;-74
2023/03/09 00:29:38;;;;;;;20.65;7.13;;;;;;;-0.46;100.00;98757.44;5999689;28;20039;-74
2023/03/09 00:32:33;;;;;;;20.10;8.20;;;;;;;-0.61;100.00;98732.66;6001086;28;20438;-74
2023/03/09 00:35:29;;;;;;;18.93;7.37;;;;;;;-0.39;100.00;98761.19;6001694;28;20034;-73
2023/03/09 00:38:24;;;;;;;23.63;7.33;;;;;;;-0.43;100.00;98749.38;6001016;28;20050;-75
2023/03/09 00:41:21;;;;;;;22.97;7.07;;;;;;;-0.47;100.00;98734.97;6001844;28;20472;-73
2023/03/09 00:44:16;;;;;;;24.45;8.85;;;;;;;-0.51;100.00;98732.72;6000984;28;20062;-73
2023/03/09 00:47:11;;;;;;;23.73;7.57;;;;;;;-0.45;100.00;98759.09;6001597;28;20061;-74
2023/03/09 00:53:58;;;;;;;25.23;8.65;;;;;;;-0.52;100.00;98733.69;5998025;28;20043;-74
2023/03/09 00:56:54;;;;;;;24.47;8.67;;;;;;;-0.52;100.00;98723.28;6001326;28;20484;-74
2023/03/09 00:59:51;;;;;;;25.33;8.27;;;;;;;-0.48;100.00;98735.91;6002890;28;20363;-74
2023/03/09 01:02:47;;;;;;;26.80;8.18;;;;;;;-0.54;100.00;98714.78;6000673;28;20042;-74
2023/03/09 01:05:42;;;;;;;28.20;10.10;;;;;;;-0.55;100.00;98710.53;6001234;28;20030;-73
2023/03/09 01:08:37;;;;;;;19.77;7.37;;;;;;;-0.60;100.00;98705.69;6016238;28;20125;-74
2023/03/09 01:11:33;;;;;;;23.00;7.85;;;;;;;-0.46;100.00;98728.78;6000904;28;20328;-74
2023/03/09 01:14:28;;;;;;;23.33;7.70;;;;;;;-0.51;100.00;98715.34;6000512;28;20062;-75
2023/03/09 01:17:25;;;;;;;23.00;8.10;;;;;;;-0.58;100.00;98702.97;6000711;28;20081;-75
2023/03/09 01:20:20;;;;;;;21.88;8.20;;;;;;;-0.61;100.00;98693.63;5994419;28;20038;-74
2023/03/09 01:23:16;;;;;;;23.20;7.67;;;;;;;-0.63;100.00;98685.13;6000353;28;20062;-75
2023/03/09 01:26:11;;;;;;;19.23;6.40;;;;;;;-0.66;100.00;98677.56;6000554;28;20042;-74
2023/03/09 01:29:06;;;;;;;25.17;8.47;;;;;;;-0.60;100.00;98695.28;6000731;28;20173;-73
2023/03/09 01:32:02;;;;;;;24.53;9.23;;;;;;;-0.59;100.00;98702.13;6000371;28;20298;-73
2023/03/09 01:34:57;;;;;;;22.77;6.57;;;;;;;-0.62;100.00;98687.59;6000799;28;20050;-74
2023/03/09 01:37:52;;;;;;;21.60;8.13;;;;;;;-0.58;100.00;98682.97;5998293;28;20578;-74
2023/03/09 01:40:48;;;;;;;19.10;6.63;;;;;;;-0.59;100.00;98683.91;6000876;28;20033;-74
2023/03/09 01:43:45;;;;;;;20.67;7.33;;;;;;;-0.66;100.00;98659.34;6014895;28;20031;-74
2023/03/09 01:46:52;;;;;;;15.20;5.93;;;;;;;-0.61;100.00;98667.59;5999673;28;20039;-73
2023/03/09 01:49:48;;;;;;;20.20;6.88;;;;;;;-0.70;100.00;98658.78;5999419;28;20041;-74
2023/03/09 01:52:46;;;;;;;20.33;7.22;;;;;;;-0.62;100.00;98671.16;6000124;28;20050;-74
2023/03/09 01:55:45;;;;;;;20.40;7.32;;;;;;;-0.68;100.00;98656.06;5999372;28;20130;-73
2023/03/09 01:58:40;;;;;;;20.48;6.82;;;;;;;-0.55;100.00;98674.91;6001413;28;20505;-74
2023/03/09 02:01:36;;;;;;;18.23;6.50;;;;;;;-0.58;100.00;98659.56;6001705;28;20034;-74
2023/03/09 02:04:37;;;;;;;17.35;7.00;;;;;;;-0.66;100.00;98654.16;5999037;28;20038;-74
2023/03/09 02:07:36;;;;;;;21.42;7.40;;;;;;;-0.70;100.00;98648.38;5996397;28;20038;-74
2023/03/09 02:10:37;;;;;;;17.80;6.80;;;;;;;-0.58;100.00;98667.34;6000148;28;20039;-74
2023/03/09 02:13:39;;;;;;;18.55;6.60;;;;;;;-0.60;100.00;98664.88;6014308;28;20045;-74
2023/03/09 02:16:34;;;;;;;16.27;6.38;;;;;;;-0.59;100.00;98665.69;5990054;28;20046;-73
2023/03/09 02:19:41;;;;;;;26.23;6.83;;;;;;;-0.64;100.00;98660.88;6000047;28;20462;-75
2023/03/09 02:22:38;;;;;;;13.73;6.10;;;;;;;-0.69;100.00;98654.41;5997178;28;20093;-74
2023/03/09 02:25:47;;;;;;;16.80;6.85;;;;;;;-0.68;100.00;98653.47;6000480;28;20541;-74
2023/03/09 02:28:43;;;;;;;14.18;5.32;;;;;;;-0.58;100.00;98682.13;5998311;28;20045;-74
2023/03/09 02:31:39;;;;;;;21.30;6.65;;;;;;;-0.68;100.00;98662.06;6000979;28;20038;-75
2023/03/09 02:34:35;;;;;;;24.83;6.05;;;;;;;-0.53;100.00;98665.19;6003897;28;20030;-74
2023/03/09 02:37:35;;;;;;;19.33;7.03;;;;;;;-0.57;100.00;98666.38;6006619;28;20387;-75
2023/03/09 02:40:35;;;;;;;22.25;7.35;;;;;;;-0.53;100.00;98679.97;6003819;28;20027;-74
2023/03/09 02:43:36;;;;;;;19.23;7.45;;;;;;;-0.65;100.00;98666.19;5997016;28;20033;-75
2023/03/09 02:46:32;;;;;;;18.05;6.00;;;;;;;-0.63;100.00;98682.53;6004494;28;20031;-75
2023/03/09 02:49:27;;;;;;;20.00;8.00;;;;;;;-0.54;100.00;98705.19;6003709;28;20030;-75
2023/03/09 02:52:22;;;;;;;19.03;6.57;;;;;;;-0.60;100.00;98692.69;6003149;28;20127;-74
2023/03/09 02:55:18;;;;;;;21.13;7.30;;;;;;;-0.54;100.00;98705.19;6004067;28;20317;-75
2023/03/09 02:58:13;;;;;;;20.73;7.65;;;;;;;-0.60;100.00;98693.50;6003243;28;20757;-75
2023/03/09 03:01:08;;;;;;;23.63;9.57;;;;;;;-0.57;100.00;98697.63;6005158;28;20485;-74
2023/03/09 03:04:04;;;;;;;20.97;7.20;;;;;;;-0.59;100.00;98686.50;6003190;28;20027;-75
2023/03/09 03:06:59;;;;;;;19.20;8.03;;;;;;;-0.54;100.00;98699.16;6003745;28;20787;-75
2023/03/09 03:09:54;;;;;;;21.00;7.33;;;;;;;-0.62;100.00;98691.97;6003663;28;20023;-75
2023/03/09 03:12:50;;;;;;;25.30;9.47;;;;;;;-0.61;100.00;98689.25;6003293;28;20089;-75
2023/03/09 03:15:45;;;;;;;20.60;7.63;;;;;;;-0.56;100.00;98695.84;6003989;28;20031;-74
2023/03/09 03:18:40;;;;;;;26.53;8.97;;;;;;;-0.68;100.00;98676.88;6003496;28;20042;-75
2023/03/09 03:21:36;;;;;;;24.70;8.00;;;;;;;-0.57;100.00;98699.41;6003497;28;20069;-76
2023/03/09 03:24:35;;;;;;;31.47;10.70;;;;;;;-0.60;100.00;98697.91;6004397;28;20274;-74
2023/03/09 03:27:32;;;;;;;24.70;9.95;;;;;;;-0.60;100.00;98701.28;6003305;28;20038;-74
2023/03/09 03:30:27;;;;;;;28.67;9.98;;;;;;;-0.72;100.00;98680.66;6002742;28;20110;-73
2023/03/09 03:33:22;;;;;;;30.60;9.77;;;;;;;-0.65;100.00;98687.00;6002466;28;20054;-73
2023/03/09 03:36:18;;;;;;;34.93;10.03;;;;;;;-0.61;100.00;98702.28;6003431;28;21450;-73
2023/03/09 03:39:13;;;;;;;37.47;10.57;;;;;;;-0.67;100.00;98699.31;6002878;28;20033;-74
2023/03/09 03:42:08;;;;;;;32.53;10.83;;;;;;;-0.62;100.00;98712.78;6002326;28;20027;-74
2023/03/09 03:45:04;;;;;;;33.03;10.60;;;;;;;-0.63;100.00;98727.59;6002131;28;20062;-74
2023/03/09 03:47:59;;;;;;;28.30;9.57;;;;;;;-0.61;100.00;98730.88;6001923;28;20170;-74
2023/03/09 03:50:55;;;;;;;33.07;10.47;;;;;;;-0.66;100.00;98734.81;6003081;28;20034;-74
2023/03/09 03:53:50;;;;;;;32.67;10.80;;;;;;;-0.58;100.00;98745.44;6002300;28;20057;-74
2023/03/09 03:56:45;;;;;;;28.70;10.93;;;;;;;-0.59;100.00;98748.97;6002479;28;20038;-73
2023/03/09 03:59:41;;;;;;;33.37;11.30;;;;;;;-0.58;100.00;98755.84;6002646;28;20283;-73
2023/03/09 04:02:37;;;;;;;26.10;9.93;;;;;;;-0.73;100.00;98744.88;6001699;28;20398;-73
2023/03/09 04:05:33;;;;;;;35.25;10.20;;;;;;;-0.69;100.00;98756.72;6002555;28;20341;-73
2023/03/09 04:08:29;;;;;;;33.45;11.32;;;;;;;-0.59;100.00;98769.78;6002553;28;20022;-73
2023/03/09 04:11:25;;;;;;;24.85;9.52;;;;;;;-0.69;100.00;98737.66;6002132;28;20033;-73
2023/03/09 04:14:20;;;;;;;30.97;9.97;;;;;;;-0.54;100.00;98772.84;6001436;28;20039;-74
2023/03/09 04:17:15;;;;;;;27.70;10.40;;;;;;;-0.67;100.00;98760.00;6001439;28;20039;-73
2023/03/09 04:20:11;;;;;;;31.97;11.53;;;;;;;-0.67;100.00;98767.81;6002291;28;20065;-73
2023/03/09 04:23:06;;;;;;;30.80;9.93;;;;;;;-0.68;100.00;98754.94;6001375;28;20015;-73
2023/03/09 04:26:03;;;;;;;31.77;9.83;;;;;;;-0.64;100.00;98770.16;6000835;28;20499;-73
2023/03/09 04:28:59;;;;;;;28.83;10.32;;;;;;;-0.73;100.00;98762.25;6001267;28;20039;-73
2023/03/09 04:31:54;;;;;;;33.40;11.03;;;;;;;-0.72;100.00;98779.53;6000945;28;20463;-73
2023/03/09 04:34:49;;;;;;;30.23;9.33;;;;;;;-0.63;100.00;98781.41;6002531;28;20286;-73
2023/03/09 04:37:45;;;;;;;29.67;9.43;;;;;;;-0.63;100.00;98789.22;5999127;28;20290;-73
2023/03/09 04:40:40;;;;;;;32.13;9.50;;;;;;;-0.56;100.00;98799.94;6001467;28;20026;-73
2023/03/09 04:43:36;;;;;;;30.38;10.23;;;;;;;-0.54;100.00;98801.47;6001325;28;20030;-74
2023/03/09 04:46:31;;;;;;;29.40;10.20;;;;;;;-0.62;100.00;98790.84;6000813;28;20034;-73
2023/03/09 04:49:26;;;;;;;28.90;8.60;;;;;;;-0.61;100.00;98793.34;6001560;28;20046;-73
2023/03/09 04:52:22;;;;;;;23.80;9.60;;;;;;;-0.53;100.00;98815.31;6015762;28;20035;-73
2023/03/09 04:55:17;;;;;;;24.30;8.20;;;;;;;-0.50;100.00;98815.06;6001894;28;20111;-73
2023/03/09 04:58:12;;;;;;;24.60;9.57;;;;;;;-0.50;100.00;98841.94;6000654;28;20278;-73
2023/03/09 05:01:08;;;;;;;28.77;10.00;;;;;;;-0.68;100.00;98817.38;6000944;28;20047;-73
2023/03/09 05:04:03;;;;;;;19.87;6.93;;;;;;;-0.58;100.00;98827.88;6001042;28;20105;-73
2023/03/09 05:06:58;;;;;;;23.97;8.50;;;;;;;-0.50;100.00;98831.53;6001891;28;20047;-73
2023/03/09 05:09:54;;;;;;;26.90;8.37;;;;;;;-0.53;100.00;98831.75;6001410;28;20282;-73
2023/03/09 05:12:49;;;;;;;31.07;9.97;;;;;;;-0.59;100.00;98821.84;6000812;28;20038;-73
2023/03/09 05:15:44;;;;;;;25.87;9.30;;;;;;;-0.61;100.00;98828.94;6000660;28;20033;-73
2023/03/09 05:18:40;;;;;;;29.77;9.90;;;;;;;-0.48;100.00;98849.59;6000287;28;20046;-73
2023/03/09 05:21:35;;;;;;;23.67;9.77;;;;;;;-0.47;100.00;98841.69;5999513;28;20639;-73
2023/03/09 05:24:31;;;;;;;32.23;12.50;;;;;;;-0.50;100.00;98846.31;6000773;28;20479;-72
2023/03/09 05:27:26;;;;;;;26.65;8.75;;;;;;;-0.58;100.00;98836.50;6015614;28;20289;-73
2023/03/09 05:30:22;;;;;;;27.00;8.33;;;;;;;-0.51;100.00;98855.06;6000835;28;20573;-73
2023/03/09 05:33:17;;;;;;;28.63;11.00;;;;;;;-0.57;100.00;98861.56;5999945;28;20027;-73
2023/03/09 05:36:23;;;;;;;23.33;9.03;;;;;;;-0.54;100.00;98884.75;5999280;28;20039;-73
2023/03/09 05:39:19;;;;;;;27.50;9.57;;;;;;;-0.64;100.00;98860.41;6000797;28;20019;-73
2023/03/09 05:42:14;;;;;;;29.70;9.43;;;;;;;-0.54;100.00;98865.75;5999869;28;20041;-73
2023/03/09 05:45:09;;;;;;;31.58;9.23;;;;;;;-0.62;100.00;98868.91;6001527;28;20038;-73
2023/03/09 05:48:05;;;;;;;25.73;9.43;;;;;;;-0.60;100.00;98888.66;6000051;28;20077;-73
2023/03/09 05:51:00;;;;;;;29.98;10.90;;;;;;;-0.54;100.00;98889.97;6000675;28;20739;-72
2023/03/09 05:53:56;;;;;;;24.85;8.50;;;;;;;-0.54;100.00;98895.16;6001616;28;20031;-73
2023/03/09 05:56:54;;;;;;;22.73;7.75;;;;;;;-0.59;100.00;98873.88;6001382;28;20544;-72
2023/03/09 05:59:50;;;;;;;22.33;7.13;;;;;;;-0.49;100.00;98907.84;6002020;28;20041;-72
2023/03/09 06:02:45;;;;;;;23.13;7.63;;;;;;;-0.51;100.00;98915.75;6011433;28;20062;-72
2023/03/09 06:05:40;;;;;;;27.40;9.47;;;;;;;-0.52;100.00;98903.69;5989921;28;20062;-71
2023/03/09 06:08:36;;;;;;;20.30;7.93;;;;;;;-0.57;100.00;98924.03;6003562;28;20539;-73
2023/03/09 06:11:32;;;;;;;23.97;9.27;;;;;;;-0.48;100.00;98932.91;6008121;28;20033;-71
2023/03/09 06:14:27;;;;;;;24.92;9.80;;;;;;;-0.51;100.00;98931.38;6012042;28;20075;-71
2023/03/09 06:17:22;;;;;;;23.97;8.83;;;;;;;-0.52;100.00;98921.94;6006629;28;20528;-71
2023/03/09 06:20:18;;;;;;;23.13;8.67;;;;;;;-0.50;100.00;98925.22;6006507;28;20031;-71
2023/03/09 06:23:14;;;;;;;22.10;8.65;;;;;;;-0.42;100.00;98946.28;6005843;28;20062;-71
2023/03/09 06:26:11;;;;;;;27.08;9.38;;;;;;;-0.46;100.00;98937.03;6004905;28;20043;-71
2023/03/09 06:29:06;;;;;;;31.83;11.48;;;;;;;-0.41;100.00;98947.94;6004682;28;20041;-71
2023/03/09 06:32:02;;;;;;;28.17;10.60;;;;;;;-0.32;100.00;98962.81;6003369;28;20046;-71
2023/03/09 06:34:57;;;;;;;25.58;9.32;;;;;;;-0.44;100.00;98939.53;6004250;28;20078;-73
2023/03/09 06:37:52;;;;;;;22.70;7.87;;;;;;;-0.42;100.00;98942.84;6004147;28;20031;-72
2023/03/09 06:40:48;;;;;;;23.40;8.50;;;;;;;-0.39;100.00;98940.81;6004156;28;20302;-73
2023/03/09 06:43:46;;;;;;;27.10;8.85;;;;;;;-0.44;100.00;98942.13;6003176;28;20058;-72
2023/03/09 06:46:42;;;;;;;21.95;8.30;;;;;;;-0.40;100.00;98941.75;6004403;28;20038;-73
2023/03/09 06:49:37;;;;;;;18.47;7.17;;;;;;;-0.37;100.00;98961.53;6004143;28;20398;-73
2023/03/09 06:52:32;;;;;;;26.13;9.25;;;;;;;-0.44;100.00;98953.38;6003005;28;20034;-73
2023/03/09 06:55:29;;;;;;;20.23;8.00;;;;;;;-0.33;100.00;98973.38;6001811;28;20034;-73
2023/03/09 06:58:24;;;;;;;20.65;7.20;;;;;;;-0.24;100.00;98983.03;5998982;28;20034;-72
2023/03/09 07:01:19;;;;;;;28.57;8.73;;;;;;;-0.26;100.00;98983.16;5990766;28;20034;-70
2023/03/09 07:04:17;;;;;;;24.80;9.68;;;;;;;-0.28;100.00;98971.22;5998557;28;20031;-70
2023/03/09 07:07:12;;;;;;;23.90;8.60;;;;;;;-0.25;100.00;98977.03;5999835;28;20042;-69
2023/03/09 07:10:11;;;;;;;24.63;8.53;;;;;;;-0.34;100.00;98975.13;6001543;28;20042;-71
2023/03/09 07:13:12;;;;;;;23.55;8.65;;;;;;;-0.27;100.00;98984.09;5999316;28;20345;-72
2023/03/09 07:16:08;;;;;;;22.38;8.75;;;;;;;-0.17;100.00;98984.22;6004059;28;20023;-72
2023/03/09 07:19:03;;;;;;;23.13;8.07;;;;;;;-0.27;100.00;98994.53;6003957;28;20509;-71
2023/03/09 07:21:58;;;;;;;24.70;9.10;;;;;;;-0.12;100.00;99015.94;6002511;28;20048;-72
2023/03/09 07:24:54;;;;;;;24.00;8.33;;;;;;;-0.21;100.00;99012.28;6003314;28;20030;-72
2023/03/09 07:27:49;;;;;;;19.40;7.23;;;;;;;0.02;100.00;99025.28;6003155;28;20086;-72
2023/03/09 07:30:44;;;;;;;17.60;6.87;;;;;;;-0.13;100.00;99022.91;6004515;28;20063;-72
2023/03/09 07:33:40;;;;;;;21.97;7.13;;;;;;;-0.05;100.00;99041.38;6003830;28;20290;-71
2023/03/09 07:36:35;;;;;;;22.53;7.70;;;;;;;-0.08;100.00;99025.16;6003270;28;20847;-71
2023/03/09 07:39:30;;;;;;;19.67;7.07;;;;;;;0.01;100.00;99053.09;6002855;28;20043;-71
2023/03/09 07:42:26;;;;;;;26.00;8.07;;;;;;;0.04;100.00;99062.44;6002668;28;20033;-70
2023/03/09 07:45:22;;;;;;;25.43;8.97;;;;;;;-0.10;100.00;99061.75;6004052;28;20045;-70
2023/03/09 07:48:17;;;;;;;22.83;8.90;;;;;;;-0.11;100.00;99060.09;6003866;28;20038;-71
2023/03/09 07:51:13;;;;;;;21.50;7.60;;;;;;;0.09;100.00;99070.72;6003592;28;20043;-71
2023/03/09 07:54:09;;;;;;;20.87;7.83;;;;;;;0.11;100.00;99066.25;6001846;28;20035;-71
2023/03/09 07:57:04;;;;;;;18.85;7.30;;;;;;;0.24;100.00;99072.13;6003301;28;20372;-70
2023/03/09 08:00:00;;;;;;;23.67;8.85;;;;;;;0.05;100.00;99072.75;6002100;28;20039;-70
2023/03/09 08:02:56;;;;;;;17.73;7.45;;;;;;;0.11;100.00;99093.09;6002742;28;20084;-70
2023/03/09 08:05:55;;;;;;;22.98;8.07;;;;;;;0.18;100.00;99106.50;6002517;28;20093;-71
2023/03/09 08:08:50;;;;;;;23.08;9.00;;;;;;;0.06;100.00;99110.03;6003058;28;20166;-70
2023/03/09 08:11:47;;;;;;;22.42;7.57;;;;;;;0.04;100.00;99102.34;6000575;28;20076;-71
2023/03/09 08:14:42;;;;;;;22.48;8.07;;;;;;;0.09;100.00;99086.34;5999507;28;20038;-71
2023/03/09 08:17:37;;;;;;;21.20;8.07;;;;;;;0.26;100.00;99096.28;5999417;28;20453;-71
2023/03/09 08:20:33;;;;;;;22.63;8.60;;;;;;;0.27;100.00;99105.78;5999839;28;20318;-71
2023/03/09 08:23:29;;;;;;;21.20;7.50;;;;;;;0.26;100.00;99099.72;5999113;28;20288;-72
2023/03/09 08:26:24;;;;;;;25.98;9.27;;;;;;;0.14;100.00;99087.66;6001139;28;20069;-70
2023/03/09 08:29:19;;;;;;;17.40;6.57;;;;;;;0.32;100.00;99112.28;6002271;28;20042;-70
2023/03/09 08:32:15;;;;;;;20.70;7.13;;;;;;;0.40;100.00;99114.28;6000822;28;20035;-71
2023/03/09 08:35:10;;;;;;;19.93;7.77;;;;;;;0.32;100.00;99117.50;6002024;28;20042;-71
2023/03/09 08:38:05;;;;;;;23.20;7.73;;;;;;;0.39;100.00;99133.47;5995688;28;20034;-71
2023/03/09 08:41:01;;;;;;;19.27;7.38;;;;;;;0.29;100.00;99129.94;6002181;28;20035;-72
2023/03/09 08:43:58;;;;;;;21.02;7.70;;;;;;;0.43;100.00;99145.31;6001246;28;20116;-72
2023/03/09 08:46:53;;;;;;;29.47;11.00;;;;;;;0.28;100.00;99130.88;6001053;28;20304;-73
2023/03/09 08:49:48;;;;;;;24.17;8.95;;;;;;;0.23;100.00;99144.28;6004884;28;20127;-71
2023/03/09 08:52:44;;;;;;;22.25;9.30;;;;;;;0.35;100.00;99152.91;6016285;28;20058;-72
2023/03/09 08:55:40;;;;;;;27.13;10.05;;;;;;;0.39;100.00;99139.50;6001861;28;20031;-73
2023/03/09 08:58:36;;;;;;;41.03;11.48;;;;;;;0.48;100.00;99143.19;6002040;28;20074;-71
2023/03/09 09:01:31;;;;;;;23.05;7.82;;;;;;;0.32;100.00;99137.50;5999129;28;20188;-72
2023/03/09 09:04:27;;;;;;;21.25;8.40;;;;;;;0.35;100.00;99137.28;6000539;28;20039;-73
2023/03/09 09:07:22;;;;;;;17.90;6.23;;;;;;;0.43;100.00;99140.09;6002211;28;20034;-70
2023/03/09 09:10:17;;;;;;;21.53;7.30;;;;;;;0.56;100.00;99152.06;6001335;28;20402;-71
2023/03/09 09:13:13;;;;;;;20.97;6.87;;;;;;;0.60;100.00;99171.69;6001078;28;20039;-73
2023/03/09 09:16:10;;;;;;;19.80;7.07;;;;;;;0.75;100.00;99174.06;6001589;28;20038;-72
2023/03/09 09:19:05;;;;;;;18.88;7.47;;;;;;;0.56;100.00;99166.88;6001658;28;20026;-74
2023/03/09 09:22:01;;;;;;;21.27;7.33;;;;;;;0.67;100.00;99173.84;6006574;28;20054;-73
2023/03/09 09:24:56;;;;;;;18.80;7.45;;;;;;;0.70;100.00;99173.59;6000625;28;20039;-74
2023/03/09 09:27:51;;;;;;;16.60;7.13;;;;;;;0.73;100.00;99174.19;6001396;28;20497;-73
2023/03/09 09:30:53;;;;;;;18.73;7.70;;;;;;;0.76;100.00;99181.75;6000835;28;20357;-73
2023/03/09 09:33:48;;;;;;;19.50;7.30;;;;;;;0.70;100.00;99177.03;5999825;28;20443;-73
2023/03/09 09:36:44;;;;;;;18.30;6.43;;;;;;;0.78;100.00;99172.03;5995100;28;20098;-73
2023/03/09 09:39:39;;;;;;;20.48;6.20;;;;;;;0.78;100.00;99186.84;6001048;28;20050;-72
2023/03/09 09:42:37;;;;;;;18.92;6.45;;;;;;;0.92;100.00;99195.25;6000094;28;20066;-74
2023/03/09 09:45:35;;;;;;;21.13;7.75;;;;;;;1.10;100.00;99183.31;6006393;28;20053;-73
2023/03/09 09:48:31;;;;;;;17.27;7.07;;;;;;;1.23;100.00;99175.31;6005417;28;20467;-74
2023/03/09 09:51:54;;;;;;;17.48;6.45;;;;;;;1.33;100.00;99188.44;6008821;28;20033;-73
2023/03/09 09:54:52;;;;;;;19.10;6.18;;;;;;;1.20;100.00;99194.66;6002049;28;20062;-74
2023/03/09 09:57:56;;;;;;;19.27;7.55;;;;;;;1.26;100.00;99208.16;6005810;28;20030;-74
2023/03/09 10:00:53;;;;;;;34.88;15.27;;;;;;;1.14;100.00;99195.16;6001142;28;20386;-73
2023/03/09 10:03:50;;;;;;;16.63;6.57;;;;;;;1.24;100.00;99190.03;6003112;28;20049;-74
2023/03/09 10:06:46;;;;;;;20.38;8.00;;;;;;;1.25;100.00;99214.34;6021002;28;20034;-73
2023/03/09 10:09:58;;;;;;;19.58;7.60;;;;;;;0.91;100.00;99197.97;6004291;28;20707;-73
2023/03/09 10:12:54;;;;;;;18.75;7.65;;;;;;;0.91;100.00;99198.78;5988155;28;20101;-74
2023/03/09 10:15:50;;;;;;;21.85;7.90;;;;;;;1.27;100.00;99218.50;6004589;28;20169;-74
2023/03/09 10:18:53;;;;;;;17.10;7.22;;;;;;;1.09;100.00;99218.19;6004924;28;20038;-74
2023/03/09 10:21:57;;;;;;;18.35;7.18;;;;;;;1.22;100.00;99235.47;6003173;28;20062;-72
2023/03/09 10:24:54;;;;;;;20.65;8.05;;;;;;;0.87;100.00;99238.31;6004313;28;20121;-72
2023/03/09 10:28:16;;;;;;;18.00;7.05;;;;;;;0.86;100.00;99237.47;5988551;28;20540;-73
2023/03/09 10:31:17;;;;;;;17.75;6.72;;;;;;;1.03;100.00;99218.66;6005786;28;20034;-71
2023/03/09 10:34:19;;;;;;;17.33;6.25;;;;;;;1.15;100.00;99222.91;6023550;28;20051;-72
2023/03/09 10:37:22;;;;;;;15.32;6.55;;;;;;;1.35;100.00;99243.97;6004149;28;20062;-73
2023/03/09 10:40:24;;;;;;;16.92;6.25;;;;;;;1.44;100.00;99251.06;6008364;28;20039;-71
2023/03/09 10:43:22;;;;;;;17.95;7.40;;;;;;;1.23;100.00;99258.84;6004033;28;20515;-71
2023/03/09 10:46:22;;;;;;;19.50;7.30;;;;;;;1.08;100.00;99237.44;6005290;28;20042;-72
2023/03/09 10:49:18;;;;;;;18.55;6.68;;;;;;;1.25;100.00;99256.94;6004945;28;20553;-72
2023/03/09 10:52:18;;;;;;;19.33;7.27;;;;;;;1.14;100.00;99239.53;6003025;28;20030;-72
2023/03/09 10:55:25;;;;;;;20.55;7.28;;;;;;;1.36;100.00;99259.50;6004311;28;20038;-71
2023/03/09 10:58:22;;;;;;;18.67;6.22;;;;;;;1.47;100.00;99263.88;6004515;28;20061;-70
2023/03/09 11:01:21;;;;;;;16.45;6.63;;;;;;;1.22;100.00;99251.97;6006631;28;20410;-71
2023/03/09 11:04:22;;;;;;;16.52;6.43;;;;;;;1.48;100.00;99262.91;6004593;28;20046;-71
2023/03/09 11:07:20;;;;;;;20.17;6.55;;;;;;;1.55;100.00;99277.97;6003636;28;20039;-73
2023/03/09 11:10:28;;;;;;;21.58;7.07;;;;;;;1.46;100.00;99268.28;6002035;28;20037;-73
2023/03/09 11:13:25;;;;;;;17.83;6.55;;;;;;;1.67;100.00;99290.03;6003170;28;20070;-71
2023/03/09 11:16:24;;;;;;;18.45;6.68;;;;;;;1.53;100.00;99289.47;6002237;28;20475;-71
2023/03/09 11:19:20;;;;;;;16.90;6.53;;;;;;;1.45;100.00;99289.28;6003468;28;20035;-71
2023/03/09 11:22:16;;;;;;;19.48;7.35;;;;;;;1.36;100.00;99283.00;6002830;28;20144;-72
2023/03/09 11:25:18;;;;;;;18.90;6.43;;;;;;;1.48;100.00;99278.59;6004562;28;20165;-72
2023/03/09 11:28:51;;;;;;;65.85;20.25;;;;;;;1.34;100.00;99300.59;6018173;28;20494;-72
2023/03/09 11:31:46;;;;;;;16.92;6.28;;;;;;;1.39;100.00;99287.16;6002471;28;20031;-72
2023/03/09 11:34:43;;;;;;;18.20;7.25;;;;;;;1.41;100.00;99301.78;6001954;28;20667;-72
2023/03/09 11:37:50;;;;;;;21.00;7.47;;;;;;;1.56;100.00;99289.25;5997839;28;20110;-71
2023/03/09 11:40:47;;;;;;;15.00;6.70;;;;;;;1.47;100.00;99306.47;6008668;28;20039;-72
2023/03/09 11:43:44;;;;;;;18.92;6.75;;;;;;;1.38;100.00;99317.69;6001216;28;20064;-71
2023/03/09 11:46:41;;;;;;;26.00;8.95;;;;;;;1.25;100.00;99314.38;6000793;28;20039;-71
2023/03/09 11:49:40;;;;;;;19.17;7.07;;;;;;;1.26;100.00;99312.59;6001616;28;20376;-72
2023/03/09 11:52:39;;;;;;;20.38;8.15;;;;;;;1.31;100.00;99326.09;6016949;28;20474;-71
2023/03/09 11:55:38;;;;;;;16.48;6.30;;;;;;;1.40;100.00;99312.31;6001062;28;20469;-70
2023/03/09 11:58:38;;;;;;;18.30;6.85;;;;;;;1.38;100.00;99304.63;6000730;28;20122;-70
2023/03/09 12:01:38;;;;;;;17.85;6.90;;;;;;;1.39;100.00;99302.81;6001590;28;20034;-72
2023/03/09 12:04:33;;;;;;;17.67;7.15;;;;;;;1.31;100.00;99297.38;6000459;28;20520;-71
2023/03/09 12:07:49;;;;;;;21.63;8.10;;;;;;;1.22;100.00;99306.81;6000704;28;20027;-71
2023/03/09 12:11:15;;;;;;;23.65;8.15;;;;;;;1.28;100.00;99308.91;5998616;28;20031;-72
2023/03/09 12:14:21;;;;;;;19.65;7.10;;;;;;;1.39;100.00;99308.88;6003571;28;20038;-72
2023/03/09 12:17:20;;;;;;;28.08;9.88;;;;;;;1.37;100.00;99310.78;6016691;28;20027;-72
2023/03/09 12:20:21;;;;;;;33.65;11.15;;;;;;;1.52;100.00;99306.13;6015807;28;20077;-71
2023/03/09 12:23:34;;;;;;;25.63;10.00;;;;;;;1.45;100.00;99310.16;6015750;28;20414;-71
2023/03/09 12:26:32;;;;;;;22.58;8.60;;;;;;;1.38;100.00;99301.19;6003177;28;20031;-71
2023/03/09 12:29:41;;;;;;;17.17;7.30;;;;;;;1.38;100.00;99314.22;6000983;28;20039;-71
2023/03/09 12:32:39;;;;;;;22.48;8.57;;;;;;;1.56;100.00;99320.59;6001110;28;20429;-72
2023/03/09 12:35:41;;;;;;;15.82;6.63;;;;;;;1.44;100.00;99321.59;6002612;28;20098;-70
2023/03/09 12:38:36;;;;;;;;;;;;;;;1.42;100.00;99313.84;5995320;28;20038;-72
2023/03/09 12:41:54;;;;;;;17.10;6.30;;;;;;;1.45;100.00;99304.94;6001116;28;20285;-72
2023/03/09 12:44:50;;;;;;;16.73;7.25;;;;;;;1.43;100.00;99299.03;5999851;28;20029;-72
2023/03/09 12:47:58;;;;;;;20.52;8.35;;;;;;;1.53;100.00;99306.00;6000887;28;20069;-71
2023/03/09 12:51:02;;;;;;;24.85;9.23;;;;;;;1.60;100.00;99288.06;5999792;28;20038;-71
2023/03/09 12:54:27;;;;;;;20.20;6.97;;;;;;;1.77;100.00;99321.44;5999697;28;20039;-71
2023/03/09 12:57:23;;;;;;;25.08;8.43;;;;;;;1.43;100.00;99322.53;5996944;28;20050;-71
2023/03/09 13:00:27;;;;;;;26.80;8.55;;;;;;;1.37;100.00;99333.44;6001610;28;20445;-71
2023/03/09 13:03:42;;;;;;;24.30;8.63;;;;;;;1.48;100.00;99320.38;6015444;28;20097;-72
2023/03/09 13:06:58;;;;;;;34.92;12.68;;;;;;;1.50;100.00;99327.13;6000012;28;20499;-71
2023/03/09 13:09:53;;;;;;;24.10;9.55;;;;;;;1.45;100.00;99336.28;6014688;28;20027;-71
2023/03/09 13:12:54;;;;;;;21.95;7.78;;;;;;;1.48;100.00;99328.22;5999407;28;20109;-72
2023/03/09 13:15:49;;;;;;;25.60;8.48;;;;;;;1.45;100.00;99308.41;6017711;28;20031;-71
2023/03/09 13:18:45;;;;;;;22.00;7.93;;;;;;;1.59;100.00;99328.19;5993040;28;20030;-72
2023/03/09 13:21:41;;;;;;;20.92;8.30;;;;;;;1.59;100.00;99338.63;6000220;28;20030;-72
2023/03/09 13:24:39;;;;;;;23.77;7.47;;;;;;;1.56;100.00;99320.59;5999546;28;20037;-73
2023/03/09 13:27:34;;;;;;;22.08;8.95;;;;;;;1.61;100.00;99336.72;5999613;28;20046;-73
2023/03/09 13:30:31;;;;;;;19.48;8.07;;;;;;;1.48;100.00;99336.03;6001186;28;20034;-72
2023/03/09 13:33:30;;;;;;;18.73;7.53;;;;;;;1.39;100.00;99340.22;6015415;28;20034;-73
2023/03/09 13:36:26;;;;;;;23.10;7.75;;;;;;;1.41;100.00;99333.09;6002148;28;20046;-73
2023/03/09 13:39:24;;;;;;;19.52;7.43;;;;;;;1.44;100.00;99347.69;6001112;28;20487;-72
2023/03/09 13:42:19;;;;;;;23.73;9.15;;;;;;;1.61;100.00;99339.31;5999517;28;20085;-72